createdAt,value
2023-12-12T00:01:53.682Z,1.53
2023-12-12T00:04:39.251Z,1.41
2023-12-12T00:07:24.654Z,1.34
2023-12-12T00:10:10.127Z,1.46
2023-12-12T00:12:55.243Z,1.34
2023-12-12T00:15:40.139Z,1.41
2023-12-12T00:18:25.257Z,1.39
2023-12-12T00:21:10.684Z,1.35
2023-12-12T00:23:55.625Z,1.39
2023-12-12T00:26:40.599Z,1.18
2023-12-12T00:29:25.841Z,1.34
2023-12-12T00:32:10.658Z,1.33
2023-12-12T00:34:56.108Z,1.30
2023-12-12T00:37:41.254Z,1.36
2023-12-12T00:40:26.690Z,1.36
2023-12-12T00:43:12.273Z,1.17
2023-12-12T00:45:57.386Z,1.33
2023-12-12T00:48:42.928Z,1.38
2023-12-12T00:51:28.509Z,1.25
2023-12-12T00:54:13.373Z,1.35
2023-12-12T00:56:58.348Z,1.35
2023-12-12T00:59:43.536Z,1.28
2023-12-12T01:02:28.595Z,1.19
2023-12-12T01:05:13.577Z,1.28
2023-12-12T01:07:58.928Z,1.34
2023-12-12T01:10:44.049Z,1.25
2023-12-12T01:13:29.522Z,1.22
2023-12-12T01:16:14.689Z,1.56
2023-12-12T01:19:00.246Z,1.15
2023-12-12T01:21:45.640Z,1.31
2023-12-12T01:24:30.496Z,1.22
2023-12-12T01:27:15.479Z,1.32
2023-12-12T01:30:00.430Z,1.21
2023-12-12T01:32:45.621Z,1.43
2023-12-12T01:35:30.934Z,1.23
2023-12-12T01:38:15.973Z,1.32
2023-12-12T01:41:04.409Z,1.33
2023-12-12T01:43:49.465Z,1.29
2023-12-12T01:46:34.522Z,1.30
2023-12-12T01:49:19.908Z,1.30
2023-12-12T01:52:05.093Z,1.39
2023-12-12T01:54:50.658Z,1.35
2023-12-12T01:57:35.486Z,1.41
2023-12-12T02:00:20.217Z,1.45
2023-12-12T02:03:05.216Z,1.27
2023-12-12T02:05:50.458Z,1.29
2023-12-12T02:08:35.657Z,1.31
2023-12-12T02:11:20.537Z,1.20
2023-12-12T02:14:05.565Z,1.26
2023-12-12T02:16:50.447Z,1.24
2023-12-12T02:19:35.639Z,1.36
2023-12-12T02:22:20.918Z,1.38
2023-12-12T02:25:06.401Z,1.35
2023-12-12T02:27:51.862Z,1.40
2023-12-12T02:30:36.696Z,1.23
2023-12-12T02:33:21.712Z,1.41
2023-12-12T02:36:07.036Z,1.38
2023-12-12T02:38:52.332Z,1.34
2023-12-12T02:41:37.533Z,1.55
2023-12-12T02:44:22.505Z,1.33
2023-12-12T02:47:07.928Z,1.33
2023-12-12T02:49:52.929Z,1.29
2023-12-12T02:52:38.493Z,1.34
2023-12-12T02:55:23.795Z,1.20
2023-12-12T02:58:09.299Z,1.17
2023-12-12T03:00:54.487Z,1.37
2023-12-12T03:03:39.825Z,1.11
2023-12-12T03:06:24.801Z,1.27
2023-12-12T03:09:09.677Z,1.44
2023-12-12T03:11:54.923Z,1.24
2023-12-12T03:14:39.899Z,1.19
2023-12-12T03:17:24.950Z,1.23
2023-12-12T03:20:09.889Z,1.15
2023-12-12T03:22:54.711Z,1.13
2023-12-12T03:25:40.278Z,1.22
2023-12-12T03:28:25.352Z,1.15
2023-12-12T03:31:10.848Z,1.12
2023-12-12T03:33:56.211Z,1.05
2023-12-12T03:36:41.628Z,1.12
2023-12-12T03:39:26.696Z,1.01
2023-12-12T03:42:12.060Z,1.16
2023-12-12T03:44:57.431Z,1.05
2023-12-12T03:47:42.431Z,0.92
2023-12-12T03:50:28.039Z,1.01
2023-12-12T03:53:13.079Z,1.04
2023-12-12T03:55:58.160Z,1.17
2023-12-12T03:58:43.193Z,1.22
2023-12-12T04:01:28.377Z,1.07
2023-12-12T04:04:13.783Z,1.04
2023-12-12T04:06:59.378Z,1.07
2023-12-12T04:09:44.710Z,0.99
2023-12-12T04:12:29.712Z,1.09
2023-12-12T04:15:14.812Z,0.98
2023-12-12T04:17:59.923Z,1.02
2023-12-12T04:20:45.323Z,1.06
2023-12-12T04:23:30.715Z,0.97
2023-12-12T04:26:15.674Z,1.00
2023-12-12T04:29:00.780Z,1.07
2023-12-12T04:31:45.997Z,1.10
2023-12-12T04:34:31.373Z,1.02
2023-12-12T04:37:16.986Z,1.07
2023-12-12T04:40:02.438Z,1.02
2023-12-12T04:42:47.776Z,1.29
2023-12-12T04:45:32.757Z,0.98
2023-12-12T04:48:18.057Z,1.01
2023-12-12T04:51:03.490Z,1.03
2023-12-12T04:53:48.377Z,1.02
2023-12-12T04:56:33.423Z,0.97
2023-12-12T04:59:18.271Z,0.96
2023-12-12T05:02:03.556Z,1.03
2023-12-12T05:04:48.638Z,1.08
2023-12-12T05:07:33.884Z,0.95
2023-12-12T05:10:19.420Z,0.85
2023-12-12T05:13:04.708Z,1.12
2023-12-12T05:15:50.989Z,0.98
2023-12-12T05:18:36.681Z,0.94
2023-12-12T05:21:22.329Z,1.07
2023-12-12T05:24:07.740Z,1.04
2023-12-12T05:26:52.714Z,0.89
2023-12-12T05:29:37.731Z,0.82
2023-12-12T05:32:22.726Z,0.79
2023-12-12T05:35:08.166Z,0.86
2023-12-12T05:37:56.161Z,0.85
2023-12-12T05:40:41.559Z,0.86
2023-12-12T05:43:26.942Z,0.90
2023-12-12T05:46:11.925Z,0.85
2023-12-12T05:48:57.467Z,0.80
2023-12-12T05:51:42.761Z,0.87
2023-12-12T05:54:27.640Z,0.77
2023-12-12T05:57:12.854Z,0.81
2023-12-12T05:59:58.038Z,0.78
2023-12-12T06:02:42.977Z,1.03
2023-12-12T06:05:27.940Z,0.73
2023-12-12T06:08:13.210Z,0.76
2023-12-12T06:10:58.296Z,0.88
2023-12-12T06:13:43.418Z,0.83
2023-12-12T06:16:28.923Z,0.88
2023-12-12T06:19:14.182Z,0.85
2023-12-12T06:21:59.361Z,0.80
2023-12-12T06:24:44.744Z,0.81
2023-12-12T06:27:29.855Z,0.84
2023-12-12T06:30:15.147Z,1.00
2023-12-12T06:33:00.586Z,0.87
2023-12-12T06:35:45.927Z,0.80
2023-12-12T06:38:30.834Z,0.85
2023-12-12T06:41:15.783Z,0.84
2023-12-12T06:44:01.009Z,0.90
2023-12-12T06:46:46.029Z,0.82
2023-12-12T06:49:31.187Z,0.83
2023-12-12T06:52:16.515Z,0.88
2023-12-12T06:55:02.246Z,0.79
2023-12-12T06:57:47.720Z,0.97
2023-12-12T07:00:32.865Z,0.96
2023-12-12T07:03:18.269Z,0.95
2023-12-12T07:06:03.345Z,0.87
2023-12-12T07:08:50.180Z,0.95
2023-12-12T07:11:37.000Z,0.78
2023-12-12T07:14:21.815Z,0.80
2023-12-12T07:17:06.867Z,1.52
2023-12-12T07:19:52.085Z,1.41
2023-12-12T07:22:37.569Z,1.62
2023-12-12T07:25:23.060Z,1.46
2023-12-12T07:28:08.236Z,1.44
2023-12-12T07:30:53.772Z,1.83
2023-12-12T07:33:38.823Z,1.73
2023-12-12T07:36:23.879Z,1.87
2023-12-12T07:39:08.803Z,2.27
2023-12-12T07:41:53.745Z,2.35
2023-12-12T07:44:39.129Z,2.19
2023-12-12T07:47:33.964Z,2.22
2023-12-12T07:50:23.874Z,1.99
2023-12-12T07:53:08.874Z,2.21
2023-12-12T07:55:53.772Z,2.25
2023-12-12T07:58:38.753Z,2.33
2023-12-12T08:01:24.238Z,2.28
2023-12-12T08:04:09.418Z,1.93
2023-12-12T08:06:54.583Z,2.19
2023-12-12T08:09:39.878Z,2.20
2023-12-12T08:12:24.938Z,2.05
2023-12-12T08:15:09.727Z,2.20
2023-12-12T08:17:54.830Z,1.92
2023-12-12T08:20:40.248Z,1.95
2023-12-12T08:23:25.366Z,2.00
2023-12-12T08:26:10.310Z,1.65
2023-12-12T08:28:55.121Z,1.59
2023-12-12T08:31:40.133Z,1.59
2023-12-12T08:34:25.599Z,1.49
2023-12-12T08:37:10.671Z,1.56
2023-12-12T08:39:55.879Z,1.54
2023-12-12T08:42:40.953Z,1.50
2023-12-12T08:45:25.972Z,1.46
2023-12-12T08:48:11.040Z,1.50
2023-12-12T08:50:56.491Z,1.50
2023-12-12T08:53:41.303Z,1.37
2023-12-12T08:56:26.220Z,1.50
2023-12-12T08:59:11.467Z,1.48
2023-12-12T09:01:56.700Z,1.16
2023-12-12T09:04:42.064Z,1.28
2023-12-12T09:07:27.438Z,1.45
2023-12-12T09:10:12.673Z,1.45
2023-12-12T09:12:57.994Z,1.38
2023-12-12T09:15:43.403Z,1.25
2023-12-12T09:18:28.742Z,1.26
2023-12-12T09:21:14.187Z,1.23
2023-12-12T09:23:59.738Z,1.21
2023-12-12T09:26:44.642Z,1.15
2023-12-12T09:29:29.552Z,1.20
2023-12-12T09:32:14.709Z,1.12
2023-12-12T09:34:59.596Z,1.19
2023-12-12T09:37:44.622Z,1.30
2023-12-12T09:40:30.043Z,1.03
2023-12-12T09:43:15.454Z,1.07
2023-12-12T09:46:00.870Z,1.27
2023-12-12T09:48:46.295Z,1.14
2023-12-12T09:51:31.635Z,1.10
2023-12-12T09:54:16.836Z,1.11
2023-12-12T09:57:01.824Z,1.11
2023-12-12T09:59:47.258Z,1.16
2023-12-12T10:02:32.116Z,1.20
2023-12-12T10:05:17.082Z,1.08
2023-12-12T10:08:08.175Z,1.04
2023-12-12T10:10:56.133Z,1.18
2023-12-12T10:13:41.253Z,1.14
2023-12-12T10:16:26.596Z,1.07
2023-12-12T10:19:12.362Z,1.27
2023-12-12T10:21:57.795Z,1.16
2023-12-12T10:24:43.069Z,0.96
2023-12-12T10:27:27.931Z,1.12
2023-12-12T10:30:13.309Z,1.06
2023-12-12T10:32:58.650Z,1.07
2023-12-12T10:35:43.862Z,0.97
2023-12-12T10:38:28.858Z,0.99
2023-12-12T10:41:14.738Z,1.06
2023-12-12T10:44:00.343Z,0.95
2023-12-12T10:46:45.249Z,1.09
2023-12-12T10:49:30.369Z,1.04
2023-12-12T10:52:15.967Z,1.13
2023-12-12T10:55:01.105Z,1.06
2023-12-12T10:57:46.714Z,1.21
2023-12-12T11:00:32.262Z,1.17
2023-12-12T11:03:17.558Z,1.56
2023-12-12T11:06:02.642Z,3.44
2023-12-12T11:08:48.204Z,5.92
2023-12-12T11:11:33.646Z,7.04
2023-12-12T11:14:18.473Z,9.92
2023-12-12T11:17:03.487Z,59.78
2023-12-12T11:19:48.392Z,79.93
2023-12-12T11:22:35.558Z,70.07
2023-12-12T11:25:21.678Z,78.48
2023-12-12T11:28:09.378Z,82.02
2023-12-12T11:30:55.921Z,83.70
2023-12-12T11:33:41.486Z,85.58
2023-12-12T11:36:26.789Z,84.37
2023-12-12T11:39:11.691Z,84.70
2023-12-12T11:41:56.627Z,72.51
2023-12-12T11:44:41.896Z,74.63
2023-12-12T11:47:27.461Z,68.67
2023-12-12T11:50:12.700Z,63.25
2023-12-12T11:52:57.594Z,65.75
2023-12-12T11:55:42.422Z,65.14
2023-12-12T11:58:27.585Z,63.15
2023-12-12T12:01:13.055Z,61.80
2023-12-12T12:03:58.362Z,59.49
2023-12-12T12:06:43.810Z,57.54
2023-12-12T12:09:28.708Z,56.13
2023-12-12T12:12:13.719Z,54.65
2023-12-12T12:14:58.660Z,55.02
2023-12-12T12:17:43.969Z,53.25
2023-12-12T12:20:29.318Z,53.80
2023-12-12T12:23:14.096Z,51.55
2023-12-12T12:25:59.090Z,52.15
2023-12-12T12:28:44.177Z,49.81
2023-12-12T12:31:29.320Z,49.81
2023-12-12T12:34:14.377Z,47.74
2023-12-12T12:37:02.091Z,48.23
2023-12-12T12:39:47.415Z,46.95
2023-12-12T12:42:32.898Z,47.33
2023-12-12T12:45:18.225Z,45.53
2023-12-12T12:48:03.291Z,47.01
2023-12-12T12:50:48.704Z,45.15
2023-12-12T12:53:33.823Z,45.22
2023-12-12T13:02:37.269Z,43.94
2023-12-12T13:05:22.471Z,43.10
2023-12-12T13:08:07.622Z,42.73
2023-12-12T13:10:52.614Z,42.20
2023-12-12T13:13:38.125Z,43.09
2023-12-12T13:16:23.150Z,41.20
2023-12-12T13:19:08.643Z,40.60
2023-12-12T13:21:54.129Z,40.59
2023-12-12T13:24:39.528Z,40.59
2023-12-12T15:54:03.349Z,24.52
2023-12-12T15:56:48.774Z,24.33
2023-12-12T15:59:35.794Z,24.78
2023-12-12T16:02:20.948Z,24.15
2023-12-12T16:05:06.369Z,24.25
2023-12-12T16:07:51.775Z,23.64
2023-12-12T16:10:37.145Z,24.47
2023-12-12T16:13:22.749Z,23.65
2023-12-12T16:16:08.127Z,22.73
2023-12-12T16:18:53.635Z,23.15
2023-12-12T16:21:39.073Z,22.86
2023-12-12T16:24:24.015Z,22.93
2023-12-12T16:27:09.069Z,22.97
2023-12-12T16:29:53.865Z,22.59
2023-12-12T16:32:38.954Z,22.62
2023-12-12T16:35:24.237Z,22.01
2023-12-12T16:38:09.309Z,21.93
2023-12-12T16:40:54.380Z,21.69
2023-12-12T16:43:39.858Z,22.43
2023-12-12T16:46:25.385Z,21.35
2023-12-12T16:49:10.619Z,21.13
2023-12-12T17:11:30.206Z,20.28
2023-12-12T17:14:15.130Z,19.85
2023-12-12T17:17:00.073Z,20.74
